Terminal Aerodrome Forecast
Issued by NWS Charleston, WV

Current Version | Previous Version | Graphics & Text | Print | Product List | Glossary On
Versions: 1 2 3 4 5 6 7 8 9 10 11 12 13 14 15 16 17 18 19 20 21 22 23 24 25 26 27 28 29 30
000
FTUS41 KRLX 291742
TAFHTS
TAF
KHTS 291742Z 2918/3018 25004KT P6SM SCT040
     FM292300 23003KT P6SM SCT045
     FM300300 00000KT P6SM VCTS SCT045CB
     FM300500 00000KT 6SM BR VCTS BKN040CB
     FM300700 00000KT 3SM BR VCTS BKN035CB
     FM301000 26003KT 5SM BR BKN035
     FM301200 29004KT 6SM BR BKN040
     FM301300 30006KT P6SM SCT045=

USA.gov is the U.S. government's official web portal to all federal, state and local government web resources and services.